Time;durP1;ratioP1;P1;durP2;ratioP2;P2;SDS_P1;SDS_P2;PMS_P1;PMS_P2;Temp;Humidity;BMP_temperature;BMP_pressure;BME280_temperature;BME280_humidity;BME280_pressure;Samples;Min_cycle;Max_cycle;Signal;HPM_P1;HPM_P2
2022/07/15 00:02:06;;;;;;;8.68;1.90;;;11.40;88.60;;;;;;5049415;28;20509;-71
2022/07/15 00:04:32;;;;;;;5.68;1.67;;;11.40;88.90;;;;;;5046806;28;20052;-71
2022/07/15 00:06:58;;;;;;;11.23;1.67;;;11.30;89.10;;;;;;5050903;28;20107;-71
2022/07/15 00:10:13;;;;;;;13.50;1.92;;;11.40;89.40;;;;;;5048924;28;20175;-71
2022/07/15 00:12:09;;;;;;;4.15;1.45;;;11.40;89.30;;;;;;5039639;28;20151;-71
2022/07/15 00:14:35;;;;;;;6.72;1.67;;;11.50;89.40;;;;;;5045347;28;20459;-71
2022/07/15 00:17:01;;;;;;;8.80;1.80;;;11.50;89.20;;;;;;5049103;28;20025;-71
2022/07/15 00:19:27;;;;;;;8.40;1.90;;;11.40;89.30;;;;;;5048996;28;20040;-71
2022/07/15 00:21:52;;;;;;;10.63;1.77;;;11.40;89.20;;;;;;5046570;28;20376;-71
2022/07/15 00:24:18;;;;;;;11.95;1.50;;;11.30;89.70;;;;;;5051590;28;20057;-71
2022/07/15 00:26:43;;;;;;;9.85;1.60;;;11.30;89.80;;;;;;5047617;28;20070;-71
2022/07/15 00:29:09;;;;;;;11.15;1.70;;;11.20;90.00;;;;;;5040829;28;20111;-71
2022/07/15 00:31:34;;;;;;;9.05;1.67;;;11.10;90.30;;;;;;5044199;28;20112;-71
2022/07/15 00:34:00;;;;;;;8.88;1.38;;;11.10;90.80;;;;;;5044826;28;20033;-71
2022/07/15 00:36:25;;;;;;;13.18;1.80;;;11.10;90.80;;;;;;5051222;28;20178;-71
2022/07/15 00:38:51;;;;;;;9.30;1.83;;;11.10;90.80;;;;;;5043741;28;20044;-71
2022/07/15 00:41:16;;;;;;;9.95;2.20;;;11.10;91.00;;;;;;5052892;28;20329;-71
2022/07/15 00:43:42;;;;;;;12.38;2.10;;;11.10;91.10;;;;;;5043895;28;20071;-71
2022/07/15 00:46:07;;;;;;;9.88;1.88;;;11.10;91.40;;;;;;5047554;28;20432;-71
2022/07/15 00:48:33;;;;;;;6.00;1.63;;;11.00;91.40;;;;;;5048249;28;20510;-71
2022/07/15 00:50:59;;;;;;;5.82;1.60;;;11.00;91.40;;;;;;5047523;28;20048;-71
2022/07/15 00:53:28;;;;;;;14.57;2.15;;;11.10;91.60;;;;;;5047846;28;20376;-71
2022/07/15 00:55:59;;;;;;;4.93;1.60;;;11.10;91.70;;;;;;5040875;28;20133;-71
2022/07/15 00:58:26;;;;;;;7.55;1.85;;;11.00;91.60;;;;;;5043863;28;20029;-71
2022/07/15 01:00:54;;;;;;;8.52;2.10;;;11.00;91.90;;;;;;5044010;28;20036;-71
2022/07/15 01:03:20;;;;;;;7.43;1.95;;;11.00;92.00;;;;;;5048219;28;20048;-71
2022/07/15 01:05:47;;;;;;;10.10;2.15;;;11.00;92.10;;;;;;5048062;28;20036;-71
2022/07/15 01:08:13;;;;;;;11.05;1.83;;;11.00;92.10;;;;;;5047757;28;20510;-71
2022/07/15 01:10:39;;;;;;;10.68;1.65;;;11.00;92.20;;;;;;5047774;28;20029;-71
2022/07/15 01:13:05;;;;;;;8.15;1.65;;;11.00;92.00;;;;;;5047739;28;20428;-71
2022/07/15 01:15:32;;;;;;;6.35;1.75;;;11.00;92.30;;;;;;5043347;28;20071;-71
2022/07/15 01:17:59;;;;;;;8.98;1.75;;;11.00;92.00;;;;;;5047476;28;20433;-71
2022/07/15 01:20:25;;;;;;;7.63;1.63;;;11.00;92.30;;;;;;5048824;28;20056;-71
2022/07/15 01:22:50;;;;;;;13.48;1.77;;;11.00;92.10;;;;;;5044282;28;20037;-71
2022/07/15 01:25:16;;;;;;;7.78;1.98;;;11.00;92.20;;;;;;5044449;28;20055;-71
2022/07/15 01:27:41;;;;;;;8.80;1.85;;;10.90;92.30;;;;;;5045575;28;20029;-71
2022/07/15 01:30:07;;;;;;;5.93;1.52;;;11.00;92.40;;;;;;5045378;28;20105;-71
2022/07/15 01:32:33;;;;;;;5.35;1.25;;;10.90;92.20;;;;;;5045524;28;20120;-71
2022/07/15 01:35:00;;;;;;;8.85;1.77;;;10.80;92.10;;;;;;5048127;28;20063;-71
2022/07/15 01:37:25;;;;;;;12.13;1.58;;;10.60;92.20;;;;;;5043679;28;20036;-71
2022/07/15 01:39:51;;;;;;;4.80;1.77;;;10.50;92.40;;;;;;5037724;28;20385;-71
2022/07/15 01:42:17;;;;;;;5.05;1.60;;;10.40;92.70;;;;;;5047565;28;20232;-71
2022/07/15 01:44:42;;;;;;;9.30;1.70;;;10.40;93.00;;;;;;5042478;28;20033;-71
2022/07/15 01:47:08;;;;;;;13.75;2.28;;;10.30;93.00;;;;;;5046630;28;20040;-71
2022/07/15 01:49:33;;;;;;;7.68;1.20;;;10.30;93.20;;;;;;5051795;28;20029;-71
2022/07/15 01:52:01;;;;;;;12.30;1.85;;;10.30;93.60;;;;;;5044682;28;20052;-71
2022/07/15 01:54:29;;;;;;;13.77;2.08;;;10.40;93.60;;;;;;5045078;28;20037;-71
2022/07/15 01:56:54;;;;;;;10.10;1.85;;;10.50;93.70;;;;;;5043252;28;20407;-71
2022/07/15 01:59:25;;;;;;;5.05;1.42;;;10.60;93.70;;;;;;5041117;28;20171;-71
2022/07/15 02:01:52;;;;;;;9.43;2.00;;;10.70;93.50;;;;;;5047185;28;20043;-71
2022/07/15 02:04:19;;;;;;;11.88;1.90;;;10.80;93.40;;;;;;5048506;28;20499;-71
2022/07/15 02:06:45;;;;;;;5.07;1.60;;;10.90;93.10;;;;;;5046101;28;20052;-71
2022/07/15 02:09:11;;;;;;;9.63;1.70;;;11.00;93.00;;;;;;5044987;28;20191;-71
2022/07/15 02:11:37;;;;;;;8.77;1.70;;;11.00;92.80;;;;;;5040804;28;20028;-71
2022/07/15 02:14:02;;;;;;;7.93;1.42;;;11.00;92.60;;;;;;5037011;28;20102;-71
2022/07/15 02:16:29;;;;;;;9.85;1.45;;;11.00;92.40;;;;;;5044801;28;20074;-71
2022/07/15 02:18:55;;;;;;;7.85;1.77;;;10.90;92.40;;;;;;5046910;28;20060;-71
2022/07/15 02:21:22;;;;;;;6.38;1.58;;;10.80;92.50;;;;;;5045672;28;20500;-71
2022/07/15 02:23:47;;;;;;;9.80;1.48;;;10.70;92.50;;;;;;5042647;28;20128;-71
2022/07/15 02:26:13;;;;;;;7.95;1.52;;;10.60;92.80;;;;;;5041112;28;20080;-71
2022/07/15 02:28:39;;;;;;;14.07;1.58;;;10.60;93.00;;;;;;5042760;28;20155;-71
2022/07/15 02:31:05;;;;;;;7.45;1.52;;;10.60;93.20;;;;;;5048060;28;20188;-71
2022/07/15 02:33:31;;;;;;;11.27;1.88;;;10.70;93.30;;;;;;5048721;28;20405;-71
2022/07/15 02:35:56;;;;;;;5.72;1.27;;;10.80;93.30;;;;;;5047683;28;20473;-71
2022/07/15 02:38:22;;;;;;;11.82;1.45;;;10.80;93.30;;;;;;5043548;28;20429;-71
2022/07/15 02:40:48;;;;;;;11.20;1.95;;;10.90;93.20;;;;;;5042377;28;20442;-71
2022/07/15 02:43:14;;;;;;;6.45;1.50;;;11.00;93.00;;;;;;5044867;28;20457;-71
2022/07/15 02:45:39;;;;;;;9.48;1.73;;;11.10;92.90;;;;;;5039749;28;20041;-71
2022/07/15 02:48:05;;;;;;;7.53;1.73;;;11.20;92.80;;;;;;5037219;28;20116;-71
2022/07/15 02:50:31;;;;;;;6.57;1.40;;;11.30;92.30;;;;;;5046116;28;20124;-71
2022/07/15 02:52:57;;;;;;;10.13;1.95;;;11.30;92.20;;;;;;5046518;28;20123;-71
2022/07/15 02:55:22;;;;;;;6.78;1.58;;;11.40;92.10;;;;;;5038600;28;20091;-71
2022/07/15 02:57:48;;;;;;;7.45;1.48;;;11.50;91.90;;;;;;5043852;28;20033;-71
2022/07/15 03:00:19;;;;;;;10.50;1.48;;;11.50;91.80;;;;;;5041383;28;20123;-71
2022/07/15 03:02:45;;;;;;;;;;;11.50;91.70;;;;;;5045516;28;20028;-71
2022/07/15 03:05:11;;;;;;;;;;;11.50;91.80;;;;;;5045931;28;20347;-71
2022/07/15 03:07:37;;;;;;;;;;;11.50;91.40;;;;;;5043188;28;20028;-71
2022/07/15 03:10:03;;;;;;;;;;;11.60;91.40;;;;;;5033349;28;20673;-71
2022/07/15 03:12:29;;;;;;;;;;;11.60;91.20;;;;;;5046572;28;20055;-71
2022/07/15 03:14:54;;;;;;;;;;;11.70;91.20;;;;;;5050024;28;20019;-71
2022/07/15 03:17:20;;;;;;;;;;;11.70;91.00;;;;;;5046109;28;20006;-71
2022/07/15 03:19:45;;;;;;;;;;;11.70;91.20;;;;;;5043502;28;19916;-71
2022/07/15 03:22:11;;;;;;;;;;;11.80;91.00;;;;;;5039781;28;19909;-71
2022/07/15 03:24:36;;;;;;;;;;;11.80;90.90;;;;;;5046639;28;19985;-71
2022/07/15 03:27:02;;;;;;;;;;;11.90;91.10;;;;;;5038415;28;20382;-71
2022/07/15 03:29:28;;;;;;;;;;;11.80;91.10;;;;;;5044253;28;20284;-71
2022/07/15 03:31:54;;;;;;;;;;;11.80;91.10;;;;;;5047657;28;19913;-71
2022/07/15 03:34:20;;;;;;;;;;;11.80;91.20;;;;;;5047582;28;19909;-71
2022/07/15 03:36:45;;;;;;;;;;;11.80;91.20;;;;;;5048068;28;19930;-71
2022/07/15 03:39:11;;;;;;;;;;;11.80;91.50;;;;;;5040321;28;20313;-71
2022/07/15 03:41:36;;;;;;;;;;;11.90;91.50;;;;;;5047032;28;20003;-71
2022/07/15 03:44:02;;;;;;;;;;;11.80;91.40;;;;;;5042840;28;19904;-71
2022/07/15 03:46:29;;;;;;;;;;;11.80;91.40;;;;;;5049702;28;20324;-71
2022/07/15 03:48:55;;;;;;;;;;;11.80;91.50;;;;;;5043942;28;19908;-71
2022/07/15 03:51:20;;;;;;;;;;;11.80;91.50;;;;;;5050968;28;20274;-71
2022/07/15 03:53:46;;;;;;;;;;;11.80;91.60;;;;;;5050670;28;19959;-71
2022/07/15 03:56:11;;;;;;;;;;;11.80;91.60;;;;;;5043251;28;19935;-71
2022/07/15 03:58:37;;;;;;;;;;;11.80;91.70;;;;;;5047067;28;20460;-71
2022/07/15 04:01:03;;;;;;;;;;;11.80;91.90;;;;;;5046268;28;20286;-71
2022/07/15 04:03:29;;;;;;;;;;;11.80;91.90;;;;;;5046660;28;19917;-71
2022/07/15 04:05:54;;;;;;;;;;;11.80;92.00;;;;;;5054997;28;20341;-71
2022/07/15 04:08:20;;;;;;;;;;;11.80;92.00;;;;;;5050028;28;19966;-71
2022/07/15 04:10:45;;;;;;;;;;;11.80;92.00;;;;;;5048539;28;19905;-71
2022/07/15 04:13:11;;;;;;;;;;;11.80;91.90;;;;;;5042929;28;19916;-71
2022/07/15 04:15:36;;;;;;;;;;;11.90;91.90;;;;;;5048058;28;20312;-71
2022/07/15 04:18:02;;;;;;;;;;;12.00;91.90;;;;;;5049397;28;20260;-70
2022/07/15 04:20:27;;;;;;;;;;;12.10;91.70;;;;;;5048911;28;20000;-70
2022/07/15 04:22:53;;;;;;;;;;;12.10;91.50;;;;;;5053948;28;20003;-70
2022/07/15 04:25:19;;;;;;;;;;;12.10;91.20;;;;;;5048825;28;19986;-70
2022/07/15 04:27:45;;;;;;;;;;;12.10;90.90;;;;;;5040941;28;20316;-69
2022/07/15 04:30:12;;;;;;;;;;;12.10;90.90;;;;;;5042835;28;19966;-68
2022/07/15 04:32:37;;;;;;;;;;;12.20;91.00;;;;;;5042955;28;20011;-68
2022/07/15 04:35:03;;;;;;;;;;;12.20;91.00;;;;;;5046024;28;20015;-68
2022/07/15 04:37:28;;;;;;;;;;;12.30;90.80;;;;;;5049683;28;20038;-68
2022/07/15 04:39:54;;;;;;;;;;;12.20;90.70;;;;;;5048135;28;20357;-68
2022/07/15 04:42:20;;;;;;;;;;;12.30;90.60;;;;;;5047533;28;19916;-69
2022/07/15 04:44:47;;;;;;;;;;;12.40;90.70;;;;;;5040071;28;19915;-68
2022/07/15 04:47:12;;;;;;;;;;;12.50;90.10;;;;;;5048269;28;20275;-68
2022/07/15 04:52:22;;;;;;;;;;;12.60;90.10;;;;;;5048173;28;19915;-68
2022/07/15 04:54:47;;;;;;;;;;;12.50;89.80;;;;;;5047635;28;19924;-68
2022/07/15 04:57:13;;;;;;;;;;;12.60;90.00;;;;;;5042932;28;19912;-68
2022/07/15 04:59:39;;;;;;;;;;;12.50;90.20;;;;;;5041580;28;20404;-68
2022/07/15 05:02:05;;;;;;;;;;;12.40;90.50;;;;;;5044250;28;19981;-68
2022/07/15 05:04:30;;;;;;;;;;;12.40;90.70;;;;;;5041858;28;19915;-68
2022/07/15 05:06:56;;;;;;;;;;;12.40;90.80;;;;;;5048910;28;19924;-68
2022/07/15 05:09:21;;;;;;;;;;;12.50;90.80;;;;;;5045862;28;19916;-68
2022/07/15 05:11:47;;;;;;;;;;;12.40;90.90;;;;;;5039741;28;19982;-69
2022/07/15 05:14:12;;;;;;;;;;;12.50;90.90;;;;;;5040697;28;19931;-68
2022/07/15 05:16:38;;;;;;;;;;;12.60;90.70;;;;;;5046237;28;19911;-68
2022/07/15 05:19:03;;;;;;;;;;;12.60;90.80;;;;;;5048984;28;20280;-68
2022/07/15 05:21:29;;;;;;;;;;;12.60;90.70;;;;;;5043802;28;20057;-68
2022/07/15 05:23:55;;;;;;;;;;;12.70;90.70;;;;;;5043578;28;19963;-69
2022/07/15 05:26:20;;;;;;;;;;;12.80;90.40;;;;;;5041808;28;19916;-69
2022/07/15 05:28:46;;;;;;;;;;;12.90;90.30;;;;;;5039648;28;20324;-69
2022/07/15 05:31:11;;;;;;;;;;;13.00;90.30;;;;;;5040653;28;19959;-68
2022/07/15 05:33:37;;;;;;;;;;;13.20;89.00;;;;;;5049304;28;19960;-68
2022/07/15 05:36:02;;;;;;;;;;;13.40;87.80;;;;;;5045761;28;19948;-68
2022/07/15 05:38:28;;;;;;;;;;;13.60;86.80;;;;;;5041202;28;19954;-70
2022/07/15 05:40:53;;;;;;;;;;;13.60;86.40;;;;;;5043193;28;19909;-70
2022/07/15 05:43:19;;;;;;;;;;;13.70;86.10;;;;;;5043981;28;19959;-69
2022/07/15 05:45:44;;;;;;;;;;;13.90;85.80;;;;;;5043891;28;20106;-69
2022/07/15 05:48:10;;;;;;;;;;;14.10;85.00;;;;;;5043235;28;19920;-69
2022/07/15 05:50:35;;;;;;;;;;;14.20;84.00;;;;;;5039940;28;19935;-70
2022/07/15 05:53:01;;;;;;;;;;;14.30;83.90;;;;;;5047458;28;19966;-68
2022/07/15 05:55:26;;;;;;;;;;;14.40;83.80;;;;;;5039716;28;19966;-69
2022/07/15 05:57:52;;;;;;;;;;;14.60;83.40;;;;;;5043403;28;19908;-68
2022/07/15 06:00:17;;;;;;;;;;;14.60;82.60;;;;;;5047583;28;19908;-68
2022/07/15 06:02:43;;;;;;;;;;;14.60;82.40;;;;;;5049926;28;20314;-68
2022/07/15 06:05:09;;;;;;;;;;;14.70;82.90;;;;;;5049032;28;19913;-68
2022/07/15 06:07:35;;;;;;;;;;;14.70;82.90;;;;;;5040539;28;19951;-68
2022/07/15 06:10:00;;;;;;;;;;;14.60;82.10;;;;;;5041427;28;20003;-68
2022/07/15 06:12:26;;;;;;;;;;;14.70;82.40;;;;;;5048728;28;19915;-68
2022/07/15 06:14:51;;;;;;;;;;;14.60;82.30;;;;;;5047602;28;19912;-68
2022/07/15 06:17:17;;;;;;;;;;;14.70;82.60;;;;;;5048143;28;19909;-68
2022/07/15 06:19:42;;;;;;;;;;;14.60;82.40;;;;;;5043193;28;19962;-68
2022/07/15 06:22:08;;;;;;;;;;;14.80;82.00;;;;;;5046063;28;20802;-69
2022/07/15 06:24:33;;;;;;;;;;;14.90;81.00;;;;;;5047162;28;20332;-69
2022/07/15 06:26:58;;;;;;;;;;;14.90;80.20;;;;;;5045934;28;20320;-69
2022/07/15 06:29:24;;;;;;;;;;;15.00;80.00;;;;;;5043295;28;19968;-68
2022/07/15 06:31:49;;;;;;;;;;;15.00;79.40;;;;;;5039553;28;19958;-69
2022/07/15 06:34:15;;;;;;;;;;;15.10;79.30;;;;;;5043679;28;19940;-68
2022/07/15 06:36:41;;;;;;;;;;;15.20;78.80;;;;;;5047098;28;19905;-68
2022/07/15 06:39:06;;;;;;;;;;;15.30;79.10;;;;;;5047681;28;19928;-68
2022/07/15 06:41:32;;;;;;;;;;;15.30;78.00;;;;;;5047321;28;19913;-68
2022/07/15 06:43:58;;;;;;;;;;;15.40;76.80;;;;;;5044968;28;19997;-68
2022/07/15 06:46:23;;;;;;;;;;;15.40;76.50;;;;;;5046273;28;20459;-68
2022/07/15 06:48:49;;;;;;;;;;;15.50;76.60;;;;;;5047003;28;19928;-68
2022/07/15 06:51:14;;;;;;;;;;;15.70;75.60;;;;;;5043193;28;19915;-68
2022/07/15 06:53:40;;;;;;;;;;;15.70;74.40;;;;;;5045608;28;19909;-68
2022/07/15 06:56:05;;;;;;;;;;;15.60;74.40;;;;;;5044296;28;19913;-68
2022/07/15 06:58:31;;;;;;;;;;;15.30;75.80;;;;;;5044192;28;20264;-68
2022/07/15 07:00:56;;;;;;;;;;;15.20;77.00;;;;;;5049251;28;20009;-68
2022/07/15 07:03:21;;;;;;;;;;;15.10;78.10;;;;;;5052971;28;19954;-68
2022/07/15 07:05:47;;;;;;;;;;;15.10;79.80;;;;;;5049069;28;19917;-68
2022/07/15 07:08:12;;;;;;;;;;;15.00;80.20;;;;;;5047122;28;19944;-70
2022/07/15 07:10:38;;;;;;;;;;;15.00;80.60;;;;;;5049039;28;20035;-70
2022/07/15 07:13:03;;;;;;;;;;;15.20;80.80;;;;;;5051625;28;19992;-68
2022/07/15 07:15:29;;;;;;;;;;;15.10;80.90;;;;;;5049333;28;20097;-69
2022/07/15 07:17:54;;;;;;;;;;;15.20;80.70;;;;;;5047358;28;19957;-68
2022/07/15 07:20:20;;;;;;;;;;;15.30;80.20;;;;;;5046966;28;19963;-69
2022/07/15 07:22:45;;;;;;;;;;;15.40;80.30;;;;;;5045676;28;19905;-68
2022/07/15 07:25:11;;;;;;;;;;;15.50;79.20;;;;;;5049514;28;20296;-68
2022/07/15 07:27:36;;;;;;;;;;;15.70;78.80;;;;;;5049873;28;19912;-69
2022/07/15 07:30:04;;;;;;;;;;;16.00;76.70;;;;;;5049667;28;19953;-68
2022/07/15 07:32:30;;;;;;;;;;;16.10;75.60;;;;;;5050131;28;20327;-68
2022/07/15 07:34:55;;;;;;;;;;;16.50;75.10;;;;;;5045004;28;20023;-68
2022/07/15 07:37:21;;;;;;;;;;;16.50;72.70;;;;;;5052707;28;19904;-69
2022/07/15 07:39:47;;;;;;;;;;;16.60;73.60;;;;;;5043663;28;19925;-69
2022/07/15 07:42:13;;;;;;;;;;;16.70;73.00;;;;;;5038974;28;20304;-69
2022/07/15 07:44:39;;;;;;;;;;;16.70;72.20;;;;;;5045661;28;19959;-69
2022/07/15 07:47:04;;;;;;;;;;;16.80;72.30;;;;;;5054210;28;20015;-68
2022/07/15 07:49:30;;;;;;;;;;;16.30;73.50;;;;;;5051509;28;19971;-69
2022/07/15 07:51:55;;;;;;;;;;;16.20;73.90;;;;;;5039775;28;19913;-68
2022/07/15 07:54:21;;;;;;;;;;;16.10;74.20;;;;;;5040589;28;20350;-68
2022/07/15 07:56:46;;;;;;;;;;;16.40;73.70;;;;;;5042009;28;19916;-68
2022/07/15 07:59:12;;;;;;;;;;;16.40;73.10;;;;;;5042721;28;20015;-68
2022/07/15 08:01:38;;;;;;;;;;;16.70;72.20;;;;;;5040251;28;19946;-68
2022/07/15 08:04:03;;;;;;;;;;;16.70;69.50;;;;;;5043792;28;19908;-68
2022/07/15 08:06:29;;;;;;;;;;;16.80;70.10;;;;;;5050544;28;19912;-68
2022/07/15 08:08:54;;;;;;;;;;;17.00;70.30;;;;;;5054736;28;20465;-69
2022/07/15 08:11:20;;;;;;;;;;;17.10;67.20;;;;;;5046459;28;19905;-68
2022/07/15 08:13:46;;;;;;;;;;;17.10;66.40;;;;;;5029207;28;20609;-69
2022/07/15 08:16:11;;;;;;;;;;;17.60;65.70;;;;;;5049439;28;20110;-68
2022/07/15 08:18:37;;;;;;;;;;;17.60;64.10;;;;;;5050841;28;20306;-69
2022/07/15 08:21:03;;;;;;;;;;;17.90;64.30;;;;;;5047969;28;20007;-68
2022/07/15 08:23:29;;;;;;;;;;;18.10;64.10;;;;;;5042653;28;19995;-69
2022/07/15 08:25:54;;;;;;;;;;;18.00;64.80;;;;;;5037006;28;20428;-68
2022/07/15 08:28:21;;;;;;;;;;;17.70;63.70;;;;;;5050250;28;19992;-69
2022/07/15 08:30:46;;;;;;;;;;;17.30;65.40;;;;;;5047345;28;19962;-68
2022/07/15 08:33:12;;;;;;;;;;;17.30;65.70;;;;;;5052839;28;19912;-68
2022/07/15 08:35:37;;;;;;;;;;;17.10;67.00;;;;;;5048954;28;20375;-69
2022/07/15 08:38:07;;;;;;;;;;;17.10;67.40;;;;;;5057234;28;19922;-69
2022/07/15 08:40:33;;;;;;;;;;;17.70;66.80;;;;;;5047670;28;19982;-68
2022/07/15 08:42:58;;;;;;;;;;;17.80;65.80;;;;;;5053570;28;19908;-68
2022/07/15 08:45:24;;;;;;;;;;;17.60;67.90;;;;;;5040767;28;19927;-68
2022/07/15 08:47:51;;;;;;;;;;;17.30;69.60;;;;;;5050998;28;19908;-69
2022/07/15 08:50:17;;;;;;;;;;;17.20;70.50;;;;;;5045579;28;19919;-68
2022/07/15 08:52:44;;;;;;;;;;;17.30;71.10;;;;;;5050556;28;19908;-68
2022/07/15 08:55:10;;;;;;;;;;;17.80;69.80;;;;;;5047474;28;19909;-68
2022/07/15 08:57:35;;;;;;;;;;;18.10;69.30;;;;;;5046940;28;20251;-69
2022/07/15 09:00:02;;;;;;;;;;;18.00;70.50;;;;;;5043128;28;19982;-69
2022/07/15 09:02:27;;;;;;;;;;;18.00;68.80;;;;;;5049863;28;19959;-68
2022/07/15 09:05:11;;;;;;;;;;;18.20;69.10;;;;;;5048853;28;19909;-68
2022/07/15 09:07:50;;;;;;;;;;;18.30;69.90;;;;;;5046744;28;20374;-68
2022/07/15 09:10:16;;;;;;;;;;;18.40;68.20;;;;;;5047293;28;20043;-68
2022/07/15 09:12:42;;;;;;;;;;;18.10;66.40;;;;;;5046240;28;19995;-68
2022/07/15 09:15:07;;;;;;;;;;;18.10;66.40;;;;;;5040748;28;20390;-68
2022/07/15 09:17:33;;;;;;;;;;;18.30;64.90;;;;;;5046931;28;20003;-68
2022/07/15 09:20:04;;;;;;;;;;;18.30;66.40;;;;;;5043640;28;20011;-68
2022/07/15 09:22:32;;;;;;;;;;;18.60;66.50;;;;;;5043648;28;20371;-69
2022/07/15 09:25:02;;;;;;;;;;;18.80;66.20;;;;;;5043796;28;19982;-69
2022/07/15 09:27:29;;;;;;;;;;;18.90;63.60;;;;;;5040640;28;20015;-68
2022/07/15 09:38:07;;;;;;;;;;;19.00;59.70;;;;;;5036610;28;20009;-69
2022/07/15 09:40:34;;;;;;;;;;;18.80;59.70;;;;;;5046101;28;19979;-69
2022/07/15 09:43:05;;;;;;;;;;;18.70;60.00;;;;;;5043984;28;19909;-69
2022/07/15 09:45:32;;;;;;;;;;;18.30;58.30;;;;;;5048215;28;19932;-69
2022/07/15 09:48:07;;;;;;;;;;;18.10;60.80;;;;;;5041398;28;20038;-69
2022/07/15 09:50:34;;;;;;;;;;;18.40;60.10;;;;;;5047670;28;19909;-69
2022/07/15 09:53:03;;;;;;;;;;;18.30;58.20;;;;;;5049842;28;19966;-69
2022/07/15 09:55:28;;;;;;;;;;;18.30;58.30;;;;;;5043244;28;19913;-69
2022/07/15 09:57:54;;;;;;;;;;;18.40;58.00;;;;;;5038635;28;19916;-69
2022/07/15 10:00:19;;;;;;;;;;;18.90;59.60;;;;;;5039969;28;20004;-69
2022/07/15 10:02:45;;;;;;;;;;;18.70;56.50;;;;;;5044611;28;20398;-69
2022/07/15 10:05:11;;;;;;;;;;;18.90;55.50;;;;;;5042405;28;19923;-69
2022/07/15 10:07:37;;;;;;;;;;;19.00;54.80;;;;;;5040480;28;20459;-69
2022/07/15 10:10:03;;;;;;;;;;;19.60;54.00;;;;;;5028927;28;20015;-69
2022/07/15 10:12:30;;;;;;;;;;;19.90;53.50;;;;;;5043640;28;20073;-69
2022/07/15 10:15:05;;;;;;;;;;;20.00;52.90;;;;;;5044766;28;19936;-69
2022/07/15 10:17:39;;;;;;;;;;;20.20;52.60;;;;;;5048251;28;19909;-69
2022/07/15 10:20:24;;;;;;;;;;;19.80;52.80;;;;;;5053104;28;19925;-69
2022/07/15 10:22:52;;;;;;;;;;;20.20;51.70;;;;;;5043955;28;20288;-69
2022/07/15 10:25:23;;;;;;;;;;;20.30;51.90;;;;;;5047629;28;20039;-69
2022/07/15 10:27:54;;;;;;;;;;;20.10;50.60;;;;;;5046031;28;19913;-69
2022/07/15 10:30:20;;;;;;;;;;;19.80;52.20;;;;;;5047683;28;19921;-69
2022/07/15 10:33:04;;;;;;;;;;;19.40;51.30;;;;;;5046823;28;19958;-69
2022/07/15 10:35:38;;;;;;;;;;;19.60;51.70;;;;;;5040229;28;19920;-69
2022/07/15 10:38:22;;;;;;;;;;;20.00;52.70;;;;;;5046996;28;20264;-69
2022/07/15 10:41:04;;;;;;;;;;;19.70;53.60;;;;;;5045488;28;19986;-69
2022/07/15 10:43:49;;;;;;;;;;;20.30;52.40;;;;;;5041762;28;19916;-69
2022/07/15 10:46:18;;;;;;;;;;;19.70;52.40;;;;;;5046931;28;19922;-69
2022/07/15 10:48:44;;;;;;;;;;;19.30;53.80;;;;;;5045550;28;19932;-69
2022/07/15 10:51:10;;;;;;;;;;;18.80;54.20;;;;;;5044824;28;19915;-69
2022/07/15 10:53:45;;;;;;;;;;;18.80;54.80;;;;;;5044378;28;19912;-69
2022/07/15 10:56:30;;;;;;;;;;;18.80;54.70;;;;;;5042593;28;19978;-69
2022/07/15 10:59:08;;;;;;;;;;;19.10;54.90;;;;;;5041894;28;20503;-70
2022/07/15 11:01:34;;;;;;;;;;;19.20;54.40;;;;;;5045134;28;19908;-69
2022/07/15 11:04:10;;;;;;;;;;;19.40;55.40;;;;;;5046971;28;19928;-69
2022/07/15 11:06:55;;;;;;;;;;;19.50;55.40;;;;;;5040008;28;19921;-69
2022/07/15 11:09:42;;;;;;;;;;;19.70;55.30;;;;;;5045188;28;20006;-69
2022/07/15 11:12:08;;;;;;;;;;;19.50;55.20;;;;;;5041662;28;20324;-69
2022/07/15 11:14:42;;;;;;;;;;;19.50;56.40;;;;;;5043202;28;19908;-69
2022/07/15 11:17:09;;;;;;;;;;;19.30;55.80;;;;;;5043194;28;19937;-69
2022/07/15 11:19:35;;;;;;;;;;;18.80;57.20;;;;;;5041623;28;20012;-69
2022/07/15 11:22:01;;;;;;;;;;;18.60;58.70;;;;;;5040122;28;20382;-69
2022/07/15 11:24:27;;;;;;;;;;;18.60;59.00;;;;;;5047011;28;19913;-69
2022/07/15 11:26:53;;;;;;;;;;;18.20;58.80;;;;;;5036649;28;20045;-69
2022/07/15 11:29:18;;;;;;;;;;;18.00;60.00;;;;;;5039802;28;19920;-69
2022/07/15 11:31:44;;;;;;;;;;;17.80;61.10;;;;;;5041846;28;20050;-69
2022/07/15 11:34:10;;;;;;;;;;;17.80;61.50;;;;;;5041943;28;19966;-69
2022/07/15 11:36:35;;;;;;;;;;;17.70;62.70;;;;;;5043202;28;20373;-69
2022/07/15 11:39:01;;;;;;;;;;;17.60;63.60;;;;;;5043143;28;19908;-69
2022/07/15 11:44:29;;;;;;;;;;;17.40;64.00;;;;;;5043813;28;19966;-69
2022/07/15 11:46:56;;;;;;;;;;;17.40;64.60;;;;;;5047113;28;19971;-69
2022/07/15 11:49:27;;;;;;;;;;;17.30;65.20;;;;;;5043630;28;20400;-69
2022/07/15 11:51:54;;;;;;;;;;;17.40;64.60;;;;;;5049780;28;19912;-69
2022/07/15 11:54:20;;;;;;;;;;;17.70;64.80;;;;;;5047316;28;19940;-69
2022/07/15 11:56:55;;;;;;;;;;;17.80;64.10;;;;;;5046371;28;19908;-69
2022/07/15 11:59:20;;;;;;;;;;;18.10;63.10;;;;;;5040569;28;19913;-70
2022/07/15 12:01:45;;;;;;;;;;;18.50;62.80;;;;;;5043122;28;20327;-69
2022/07/15 12:04:11;;;;;;;;;;;19.00;61.60;;;;;;5043589;28;19913;-69
2022/07/15 12:06:36;;;;;;;;;;;19.60;59.90;;;;;;5050424;28;19986;-70
2022/07/15 12:09:03;;;;;;;;;;;19.60;58.60;;;;;;5050637;28;20309;-69
2022/07/15 12:11:31;;;;;;;;;;;19.50;59.70;;;;;;5044911;28;20412;-69
2022/07/15 12:14:01;;;;;;;;;;;19.10;59.60;;;;;;5041423;28;19988;-69
2022/07/15 12:16:40;;;;;;;;;;;18.70;61.00;;;;;;5048682;28;19909;-69
2022/07/15 12:19:07;;;;;;;;;;;18.50;63.00;;;;;;5048497;28;20090;-68
2022/07/15 12:21:33;;;;;;;;;;;18.00;64.20;;;;;;5047555;28;19909;-69
2022/07/15 12:23:59;;;;;;;;;;;17.60;66.00;;;;;;5040417;28;20314;-69
2022/07/15 12:26:25;;;;;;;;;;;17.30;68.20;;;;;;5043430;28;19920;-69
2022/07/15 12:28:58;;;;;;;;;;;17.20;70.10;;;;;;5047098;28;19963;-69
2022/07/15 12:31:24;;;;;;;;;;;17.00;72.30;;;;;;5047331;28;20325;-69
2022/07/15 12:33:50;;;;;;;;;;;16.80;73.90;;;;;;5040643;28;19959;-68
2022/07/15 12:36:17;;;;;;;;;;;16.70;73.70;;;;;;5048334;28;19959;-69
2022/07/15 12:38:42;;;;;;;;;;;16.70;74.20;;;;;;5047944;28;19909;-69
2022/07/15 12:41:24;;;;;;;;;;;17.00;73.80;;;;;;5043754;28;19986;-69
2022/07/15 12:43:53;;;;;;;;;;;17.10;72.80;;;;;;5042789;28;20255;-69
2022/07/15 12:46:19;;;;;;;;;;;17.50;71.60;;;;;;5062714;28;19916;-69
2022/07/15 12:48:47;;;;;;;;;;;17.80;70.50;;;;;;5047849;28;20047;-69
2022/07/15 12:51:13;;;;;;;;;;;18.60;68.30;;;;;;5051359;28;20331;-69
2022/07/15 12:53:38;;;;;;;;;;;19.50;66.00;;;;;;5043657;28;19956;-69
2022/07/15 12:56:06;;;;;;;;;;;20.40;63.10;;;;;;5043300;28;20387;-69
2022/07/15 12:58:35;;;;;;;;;;;20.80;62.20;;;;;;5045883;28;19913;-69
2022/07/15 13:01:26;;;;;;;;;;;21.50;59.70;;;;;;5045252;28;19936;-70
2022/07/15 13:03:52;;;;;;;;;;;21.10;58.80;;;;;;5043030;28;19939;-70
2022/07/15 13:06:18;;;;;;;;;;;21.10;59.50;;;;;;5048013;28;19992;-69
2022/07/15 13:08:44;;;;;;;;;;;21.70;58.30;;;;;;5039246;28;19967;-70
2022/07/15 13:11:10;;;;;;;;;;;22.00;56.70;;;;;;5045521;28;19936;-70
2022/07/15 13:13:36;;;;;;;;;;;22.60;51.80;;;;;;5051277;28;20371;-69
2022/07/15 13:16:02;;;;;;;;;;;22.90;51.30;;;;;;5048579;28;19908;-70
2022/07/15 13:18:28;;;;;;;;;;;22.30;51.00;;;;;;5052770;28;19912;-69
2022/07/15 13:20:54;;;;;;;;;;;21.20;53.40;;;;;;5054501;28;19916;-69
2022/07/15 13:23:20;;;;;;;;;;;20.50;56.40;;;;;;5050638;28;19955;-69
2022/07/15 13:25:47;;;;;;;;;;;20.20;57.20;;;;;;5047679;28;19924;-69
2022/07/15 13:28:13;;;;;;;;;;;19.80;54.60;;;;;;5049579;28;19920;-69
2022/07/15 13:30:39;;;;;;;;;;;19.80;53.70;;;;;;5044801;28;19912;-69
2022/07/15 13:33:04;;;;;;;;;;;20.10;51.60;;;;;;5049884;28;19999;-69
2022/07/15 13:35:30;;;;;;;;;;;21.60;49.60;;;;;;5048444;28;19905;-69
2022/07/15 13:37:56;;;;;;;;;;;22.20;46.70;;;;;;5050945;28;19924;-69
2022/07/15 13:40:22;;;;;;;;;;;22.90;45.60;;;;;;5044628;28;20011;-70
2022/07/15 13:42:48;;;;;;;;;;;22.20;45.40;;;;;;5046550;28;19999;-69
2022/07/15 13:45:13;;;;;;;;;;;22.40;46.10;;;;;;5041412;28;20340;-69
2022/07/15 13:47:39;;;;;;;;;;;21.90;48.10;;;;;;5046373;28;19925;-69
2022/07/15 13:52:51;;;;;;;;;;;21.50;48.40;;;;;;5046735;28;19963;-69
2022/07/15 13:55:18;;;;;;;;;;;21.40;48.30;;;;;;5046016;28;19908;-69
2022/07/15 13:57:43;;;;;;;;;;;20.50;50.60;;;;;;5047297;28;19909;-69
2022/07/15 14:00:13;;;;;;;;;;;20.70;51.40;;;;;;5054987;28;19913;-69
2022/07/15 14:02:38;;;;;;;;;;;20.80;52.20;;;;;;5044980;28;20121;-69
2022/07/15 14:05:05;;;;;;;;;;;20.50;52.50;;;;;;5045717;28;20007;-69
2022/07/15 14:07:31;;;;;;;;;;;20.30;52.40;;;;;;5049704;28;19923;-69
2022/07/15 14:09:57;;;;;;;;;;;20.40;53.20;;;;;;5046983;28;20034;-69